createdAt,value
2019-04-01T00:00:23.553Z,17.80
2019-04-01T00:02:53.583Z,18.07
2019-04-01T00:05:23.642Z,19.30
2019-04-01T00:07:53.562Z,20.00
2019-04-01T00:10:23.622Z,17.07
2019-04-01T00:12:53.461Z,20.37
2019-04-01T00:15:23.406Z,18.17
2019-04-01T00:17:53.430Z,17.30
2019-04-01T00:20:23.350Z,17.80
2019-04-01T00:22:53.459Z,16.70
2019-04-01T00:25:24.613Z,16.70
2019-04-01T00:27:54.537Z,18.30
2019-04-01T00:30:24.468Z,17.50
2019-04-01T00:32:54.451Z,17.97
2019-04-01T00:35:24.311Z,17.57
2019-04-01T00:37:54.307Z,17.90
2019-04-01T00:40:24.212Z,17.53
2019-04-01T00:43:05.996Z,17.17
2019-04-01T00:45:36.744Z,16.70
2019-04-01T00:48:06.732Z,16.57
2019-04-01T00:50:36.681Z,18.17
2019-04-01T00:53:06.725Z,18.97
2019-04-01T00:55:36.743Z,21.63
2019-04-01T00:58:06.568Z,16.53
2019-04-01T01:00:36.561Z,15.93
2019-04-01T01:03:06.603Z,15.90
2019-04-01T01:05:36.629Z,16.60
2019-04-01T01:08:07.574Z,17.43
2019-04-01T01:10:37.643Z,15.60
2019-04-01T01:13:07.589Z,17.13
2019-04-01T01:15:37.521Z,17.00
2019-04-01T01:18:07.506Z,16.57
2019-04-01T01:20:37.527Z,16.97
2019-04-01T01:23:07.529Z,16.90
2019-04-01T01:25:37.457Z,16.57
2019-04-01T01:28:07.291Z,17.70
2019-04-01T01:30:37.203Z,19.67
2019-04-01T01:33:07.126Z,16.20
2019-04-01T01:35:37.092Z,15.73
2019-04-01T01:38:06.953Z,17.77
2019-04-01T01:40:36.976Z,17.37
2019-04-01T01:43:06.844Z,17.70
2019-04-01T01:45:36.781Z,16.57
2019-04-01T01:48:06.784Z,17.27
2019-04-01T01:50:36.883Z,17.83
2019-04-01T01:53:06.911Z,16.87
2019-04-01T01:55:36.783Z,18.43
2019-04-01T01:58:06.778Z,15.87
2019-04-01T02:00:37.448Z,15.93
2019-04-01T02:03:07.384Z,17.87
2019-04-01T02:05:37.307Z,16.07
2019-04-01T02:08:07.298Z,17.87
2019-04-01T02:10:37.262Z,18.70
2019-04-01T02:13:07.210Z,19.50
2019-04-01T02:15:37.124Z,18.17
2019-04-01T02:18:07.133Z,18.53
2019-04-01T02:20:37.178Z,18.77
2019-04-01T02:23:07.020Z,20.27
2019-04-01T02:25:37.232Z,19.13
2019-04-01T02:28:07.083Z,18.97
2019-04-01T02:30:37.060Z,18.10
2019-04-01T02:33:06.971Z,17.70
2019-04-01T02:35:36.972Z,20.03
2019-04-01T02:38:06.802Z,18.23
2019-04-01T02:40:37.433Z,18.60
2019-04-01T02:43:07.405Z,20.63
2019-04-01T02:45:37.412Z,19.00
2019-04-01T02:48:07.329Z,22.07
2019-04-01T02:50:37.331Z,20.63
2019-04-01T02:53:08.398Z,17.83
2019-04-01T02:55:38.369Z,19.80
2019-04-01T02:58:09.381Z,20.23
2019-04-01T03:00:39.314Z,18.87
2019-04-01T03:03:09.262Z,22.70
2019-04-01T03:05:39.110Z,20.17
2019-04-01T03:08:09.049Z,21.63
2019-04-01T03:10:38.988Z,21.87
2019-04-01T03:13:08.993Z,21.23
2019-04-01T03:15:39.050Z,21.77
2019-04-01T03:18:09.069Z,19.47
2019-04-01T03:20:38.898Z,21.17
2019-04-01T03:23:08.908Z,19.63
2019-04-01T03:25:38.928Z,21.33
2019-04-01T03:28:08.869Z,18.70
2019-04-01T03:30:38.816Z,23.43
2019-04-01T03:33:08.752Z,20.13
2019-04-01T03:35:38.576Z,25.93
2019-04-01T03:38:08.493Z,21.07
2019-04-01T03:40:38.450Z,21.27
2019-04-01T03:43:08.369Z,20.80
2019-04-01T03:45:38.270Z,19.90
2019-04-01T03:48:08.223Z,20.27
2019-04-01T03:50:38.185Z,21.37
2019-04-01T03:53:08.163Z,22.97
2019-04-01T03:55:38.183Z,22.53
2019-04-01T03:58:09.574Z,26.03
2019-04-01T04:00:39.463Z,25.87
2019-04-01T04:03:09.440Z,23.47
2019-04-01T04:05:39.472Z,26.80
2019-04-01T04:08:09.463Z,23.80
2019-04-01T04:10:39.377Z,24.83
2019-04-01T04:13:09.382Z,21.93
2019-04-01T04:15:39.290Z,22.90
2019-04-01T04:18:09.306Z,27.07
2019-04-01T04:20:39.133Z,21.67
2019-04-01T04:23:09.088Z,26.63
2019-04-01T04:25:39.018Z,22.67
2019-04-01T04:28:08.925Z,25.17
2019-04-01T04:30:38.802Z,28.20
2019-04-01T04:33:08.796Z,28.50
2019-04-01T04:35:38.718Z,27.07
2019-04-01T04:38:08.628Z,25.70
2019-04-01T04:40:40.831Z,35.40
2019-04-01T04:43:10.100Z,37.33
2019-04-01T04:45:40.014Z,36.70
2019-04-01T04:48:09.934Z,37.23
2019-04-01T04:50:39.841Z,36.90
2019-04-01T04:53:09.769Z,35.50
2019-04-01T04:55:39.791Z,34.30
2019-04-01T04:58:09.778Z,31.83
2019-04-01T05:00:39.693Z,33.77
2019-04-01T05:03:09.612Z,33.63
2019-04-01T05:05:39.691Z,31.73
2019-04-01T05:08:09.704Z,33.33
2019-04-01T05:10:39.626Z,40.13
2019-04-01T05:13:09.550Z,35.23
2019-04-01T05:15:39.545Z,38.20
2019-04-01T05:18:09.510Z,40.67
2019-04-01T05:20:40.820Z,34.30
2019-04-01T05:23:11.770Z,38.70
2019-04-01T05:25:43.649Z,41.70
2019-04-01T05:28:16.771Z,34.70
2019-04-01T05:30:48.966Z,34.77
2019-04-01T05:33:22.355Z,37.50
2019-04-01T05:35:52.472Z,35.33
2019-04-01T05:38:23.449Z,39.20
2019-04-01T05:40:53.440Z,34.03
2019-04-01T05:43:23.957Z,39.23
2019-04-01T05:45:53.863Z,36.57
2019-04-01T05:48:26.432Z,36.40
2019-04-01T05:50:56.339Z,37.80
2019-04-01T05:53:26.773Z,38.90
2019-04-01T05:55:56.756Z,39.00
2019-04-01T05:58:26.766Z,37.77
2019-04-01T06:01:01.915Z,39.13
2019-04-01T06:03:31.912Z,38.30
2019-04-01T06:06:01.912Z,39.07
2019-04-01T06:08:32.620Z,39.53
2019-04-01T06:11:02.688Z,37.03
2019-04-01T06:13:32.729Z,36.97
2019-04-01T06:16:02.737Z,36.20
2019-04-01T06:18:32.762Z,39.03
2019-04-01T06:21:02.741Z,34.00
2019-04-01T06:23:32.814Z,39.97
2019-04-01T06:26:02.819Z,38.87
2019-04-01T06:28:32.719Z,38.13
2019-04-01T06:31:02.762Z,38.87
2019-04-01T06:33:32.804Z,42.70
2019-04-01T06:36:02.855Z,37.50
2019-04-01T06:38:32.853Z,35.60
2019-04-01T06:41:02.887Z,43.10
2019-04-01T06:43:32.863Z,41.10
2019-04-01T06:46:02.897Z,38.37
2019-04-01T06:48:32.910Z,37.97
2019-04-01T06:51:02.955Z,34.70
2019-04-01T06:53:32.981Z,42.63
2019-04-01T06:56:02.833Z,36.67
2019-04-01T06:58:32.758Z,36.63
2019-04-01T07:01:02.765Z,45.63
2019-04-01T07:03:32.693Z,37.60
2019-04-01T07:06:02.649Z,39.27
2019-04-01T07:08:33.618Z,37.70
2019-04-01T07:11:03.705Z,38.00
2019-04-01T07:13:33.909Z,40.80
2019-04-01T07:16:15.529Z,41.37
2019-04-01T07:18:36.904Z,36.60
2019-04-01T07:21:06.953Z,38.17
2019-04-01T07:23:36.871Z,39.30
2019-04-01T07:26:06.885Z,39.33
2019-04-01T07:28:36.877Z,39.03
2019-04-01T07:31:06.886Z,40.37
2019-04-01T07:33:36.879Z,39.77
2019-04-01T07:36:06.795Z,35.97
2019-04-01T07:38:36.771Z,39.23
2019-04-01T07:41:06.843Z,40.67
2019-04-01T07:43:36.809Z,39.47
2019-04-01T07:46:08.262Z,40.97
2019-04-01T07:48:38.791Z,37.00
2019-04-01T07:51:09.155Z,34.27
2019-04-01T07:53:39.601Z,40.87
2019-04-01T07:56:09.614Z,34.73
2019-04-01T07:58:39.632Z,38.43
2019-04-01T08:01:09.617Z,41.93
2019-04-01T08:03:41.946Z,42.07
2019-04-01T08:06:11.441Z,37.10
2019-04-01T08:08:41.471Z,38.47
2019-04-01T08:11:11.441Z,45.27
2019-04-01T08:13:41.457Z,35.40
2019-04-01T08:16:11.484Z,37.73
2019-04-01T08:18:41.586Z,35.83
2019-04-01T08:21:11.750Z,33.37
2019-04-01T08:23:41.763Z,36.33
2019-04-01T08:26:11.864Z,35.00
2019-04-01T08:28:42.782Z,35.90
2019-04-01T08:31:13.417Z,37.37
2019-04-01T08:33:44.468Z,34.63
2019-04-01T08:36:14.437Z,46.40
2019-04-01T08:38:44.378Z,32.40
2019-04-01T08:41:14.468Z,36.27
2019-04-01T08:43:44.502Z,34.70
2019-04-01T08:46:14.531Z,32.50
2019-04-01T08:48:44.527Z,32.87
2019-04-01T08:51:14.548Z,31.23
2019-04-01T08:53:44.940Z,30.13
2019-04-01T08:56:14.908Z,29.73
2019-04-01T08:58:44.917Z,31.73
2019-04-01T09:01:14.991Z,30.93
2019-04-01T09:03:45.084Z,29.97
2019-04-01T09:06:15.071Z,30.43
2019-04-01T09:08:46.758Z,32.67
2019-04-01T09:11:39.099Z,30.13
2019-04-01T09:14:08.997Z,27.17
2019-04-01T09:16:39.746Z,28.33
2019-04-01T09:19:10.207Z,31.10
2019-04-01T09:21:40.189Z,26.20
2019-04-01T09:24:10.183Z,27.80
2019-04-01T09:26:40.177Z,28.60
2019-04-01T09:29:10.194Z,26.83
2019-04-01T09:31:40.176Z,25.63
2019-04-01T09:34:10.150Z,29.47
2019-04-01T09:36:40.208Z,29.83
2019-04-01T09:39:10.199Z,27.63
2019-04-01T09:41:40.137Z,33.00
2019-04-01T09:44:10.050Z,29.43
2019-04-01T09:46:39.964Z,30.87
2019-04-01T09:49:09.959Z,29.87
2019-04-01T09:51:48.576Z,31.03
2019-04-01T09:54:11.754Z,30.63
2019-04-01T09:56:41.698Z,32.50
2019-04-01T09:59:11.788Z,30.10
2019-04-01T10:01:41.723Z,31.17
2019-04-01T10:04:11.671Z,31.30
2019-04-01T10:06:41.662Z,32.83
2019-04-01T10:09:11.756Z,31.77
2019-04-01T10:11:41.766Z,30.43
2019-04-01T10:14:11.673Z,31.83
2019-04-01T10:16:41.655Z,29.97
2019-04-01T10:19:11.684Z,28.13
2019-04-01T10:21:45.063Z,29.40
2019-04-01T10:24:13.317Z,31.73
2019-04-01T10:26:43.219Z,31.20
2019-04-01T10:29:13.222Z,31.77
2019-04-01T10:31:43.199Z,31.93
2019-04-01T10:34:13.221Z,31.77
2019-04-01T10:36:46.051Z,31.17
2019-04-01T10:39:16.012Z,30.43
2019-04-01T10:41:45.843Z,29.60
2019-04-01T10:44:15.788Z,31.63
2019-04-01T10:46:45.830Z,31.47
2019-04-01T10:49:15.863Z,33.53
2019-04-01T10:51:45.878Z,33.23
2019-04-01T10:54:15.974Z,32.17
2019-04-01T10:56:45.961Z,35.80
2019-04-01T10:59:15.840Z,31.13
2019-04-01T11:01:46.010Z,29.97
2019-04-01T11:04:16.039Z,31.97
2019-04-01T11:06:46.184Z,31.07
2019-04-01T11:09:16.086Z,32.63
2019-04-01T11:11:45.907Z,31.67
2019-04-01T11:14:15.771Z,29.37
2019-04-01T11:16:46.235Z,34.17
2019-04-01T11:19:16.560Z,32.73
2019-04-01T11:21:46.508Z,31.23
2019-04-01T11:24:16.526Z,31.20
2019-04-01T11:26:46.455Z,31.30
2019-04-01T11:29:16.477Z,29.37
2019-04-01T11:31:46.500Z,31.00
2019-04-01T11:34:16.637Z,31.10
2019-04-01T11:36:46.470Z,34.07
2019-04-01T11:39:16.536Z,32.67
2019-04-01T11:41:46.530Z,31.30
2019-04-01T11:44:16.579Z,31.03
2019-04-01T11:46:46.559Z,34.67
2019-04-01T11:49:16.858Z,30.73
2019-04-01T11:51:46.894Z,29.20
2019-04-01T11:54:16.966Z,32.37
2019-04-01T11:56:46.931Z,30.40
2019-04-01T11:59:16.888Z,31.50
2019-04-01T12:01:47.528Z,30.03
2019-04-01T12:04:17.763Z,29.37
2019-04-01T12:06:47.591Z,30.30
2019-04-01T12:09:17.461Z,28.93
2019-04-01T12:11:47.408Z,28.90
2019-04-01T12:14:17.348Z,28.80
2019-04-01T12:16:47.267Z,29.37
2019-04-01T12:19:18.368Z,26.80
2019-04-01T12:21:48.480Z,27.10
2019-04-01T12:24:18.570Z,32.40
2019-04-01T12:26:48.469Z,29.17
2019-04-01T12:29:18.466Z,28.13
2019-04-01T12:31:48.299Z,28.30
2019-04-01T12:34:18.329Z,26.43
2019-04-01T12:36:49.093Z,25.37
2019-04-01T12:39:19.231Z,28.23
2019-04-01T12:41:49.445Z,29.50
2019-04-01T12:44:19.488Z,27.17
2019-04-01T12:46:49.410Z,24.27
2019-04-01T12:49:19.440Z,26.83
2019-04-01T12:51:49.935Z,28.13
2019-04-01T12:54:20.186Z,25.30
2019-04-01T12:56:50.142Z,25.13
2019-04-01T12:59:20.074Z,26.87
2019-04-01T13:01:49.973Z,25.77
2019-04-01T13:04:20.109Z,25.57
2019-04-01T13:06:51.560Z,28.53
2019-04-01T13:09:22.685Z,22.60
2019-04-01T13:11:52.628Z,23.87
2019-04-01T13:14:22.568Z,24.17
2019-04-01T13:16:52.719Z,23.13
2019-04-01T13:19:23.015Z,25.37
2019-04-01T13:21:53.055Z,25.07
2019-04-01T13:24:23.080Z,25.57
2019-04-01T13:26:53.027Z,24.03
2019-04-01T13:29:24.073Z,22.87
2019-04-01T13:31:54.169Z,26.07
2019-04-01T13:34:24.164Z,22.53
2019-04-01T13:36:54.088Z,24.10
2019-04-01T13:39:24.081Z,22.73
2019-04-01T13:41:56.171Z,29.67
2019-04-01T13:44:36.648Z,21.57
2019-04-01T13:46:57.130Z,22.77
2019-04-01T13:49:27.057Z,21.80
2019-04-01T13:51:57.004Z,26.03
2019-04-01T13:54:26.877Z,24.50
2019-04-01T13:56:56.896Z,25.17
2019-04-01T13:59:26.898Z,22.63
2019-04-01T14:01:57.292Z,23.37
2019-04-01T14:04:27.734Z,23.17
2019-04-01T14:06:57.869Z,21.80
2019-04-01T14:09:30.833Z,20.93
2019-04-01T14:12:00.894Z,21.93
2019-04-01T14:14:30.883Z,22.63
2019-04-01T14:17:00.814Z,21.30
2019-04-01T14:19:30.731Z,22.70
2019-04-01T14:22:00.838Z,22.97
2019-04-01T14:24:30.706Z,21.57
2019-04-01T14:27:01.234Z,21.13
2019-04-01T14:29:31.086Z,21.30
2019-04-01T14:32:01.010Z,22.20
2019-04-01T14:34:30.952Z,21.80
2019-04-01T14:37:00.817Z,21.13
2019-04-01T14:39:34.625Z,22.03
2019-04-01T14:42:43.240Z,22.13
2019-04-01T14:45:13.337Z,24.53
2019-04-01T14:47:56.519Z,21.20
2019-04-01T14:50:15.005Z,25.00
2019-04-01T14:52:44.917Z,19.90
2019-04-01T14:55:14.951Z,21.47
2019-04-01T14:57:44.924Z,21.43
2019-04-01T15:00:15.907Z,21.40
2019-04-01T15:02:46.097Z,19.53
2019-04-01T15:05:16.114Z,22.13
2019-04-01T15:07:46.942Z,21.30
2019-04-01T15:10:17.465Z,21.57
2019-04-01T15:12:47.397Z,19.57
2019-04-01T15:15:17.430Z,20.03
2019-04-01T15:17:47.615Z,20.13
2019-04-01T15:20:19.209Z,20.00
2019-04-01T15:22:49.225Z,18.70
2019-04-01T15:25:19.311Z,19.67
2019-04-01T15:27:49.159Z,19.97
2019-04-01T15:30:19.142Z,19.17
2019-04-01T15:32:49.007Z,20.00
2019-04-01T15:35:19.037Z,19.80
2019-04-01T15:37:49.031Z,18.23
2019-04-01T15:40:19.381Z,18.23
2019-04-01T15:42:49.218Z,19.47
2019-04-01T15:45:19.303Z,20.87
2019-04-01T15:47:49.185Z,18.80
2019-04-01T15:50:28.318Z,17.47
2019-04-01T15:52:50.837Z,17.70
2019-04-01T15:55:22.244Z,17.73
2019-04-01T15:57:52.172Z,18.07
2019-04-01T16:00:22.433Z,18.13
2019-04-01T16:02:52.452Z,20.07
2019-04-01T16:05:22.481Z,18.33
2019-04-01T16:07:52.510Z,17.83
2019-04-01T16:10:22.473Z,17.67
2019-04-01T16:12:52.495Z,19.43
2019-04-01T16:15:22.432Z,19.40
2019-04-01T16:17:54.030Z,17.80
2019-04-01T16:20:25.235Z,16.87
2019-04-01T16:22:56.064Z,20.70
2019-04-01T16:25:26.151Z,20.60
2019-04-01T16:27:56.201Z,18.20
2019-04-01T16:30:27.220Z,17.97
2019-04-01T16:32:58.554Z,17.63
2019-04-01T16:35:28.720Z,16.33
2019-04-01T16:37:59.457Z,17.67
2019-04-01T16:40:29.624Z,18.30
2019-04-01T16:42:59.665Z,16.97
2019-04-01T16:45:29.795Z,17.63
2019-04-01T16:47:59.778Z,16.97
2019-04-01T16:50:29.769Z,17.80
2019-04-01T16:53:00.987Z,16.47
2019-04-01T16:55:31.018Z,19.07
2019-04-01T16:58:01.031Z,19.63
2019-04-01T17:00:31.100Z,17.53
2019-04-01T17:03:00.937Z,18.03
2019-04-01T17:05:34.485Z,19.53
2019-04-01T17:08:04.648Z,22.27
2019-04-01T17:10:34.831Z,17.40
2019-04-01T17:13:06.279Z,21.73
2019-04-01T17:15:36.301Z,18.33
2019-04-01T17:18:06.414Z,19.00
2019-04-01T17:20:36.586Z,16.03
2019-04-01T17:23:06.949Z,17.67
2019-04-01T17:25:36.973Z,17.53
2019-04-01T17:28:13.908Z,17.00
2019-04-01T17:30:44.100Z,19.73
2019-04-01T17:33:14.114Z,17.82
2019-04-01T17:35:44.110Z,18.37
2019-04-01T17:38:14.133Z,17.07
2019-04-01T17:40:44.087Z,18.07
2019-04-01T17:43:14.207Z,18.17
2019-04-01T17:45:44.185Z,20.93
2019-04-01T17:48:14.155Z,19.37
2019-04-01T17:50:44.152Z,17.10
2019-04-01T17:53:14.564Z,17.17
2019-04-01T17:55:45.684Z,17.67
2019-04-01T17:58:15.978Z,16.43
2019-04-01T18:00:51.077Z,17.03
2019-04-01T18:03:21.685Z,19.83
2019-04-01T18:05:51.734Z,16.70
2019-04-01T18:08:21.782Z,16.37
2019-04-01T18:10:52.943Z,18.27
2019-04-01T18:13:22.779Z,19.63
2019-04-01T18:15:52.790Z,19.40
2019-04-01T18:18:27.083Z,18.20
2019-04-01T18:20:54.429Z,20.47
2019-04-01T18:23:26.284Z,19.43
2019-04-01T18:25:56.186Z,17.83
2019-04-01T18:28:26.100Z,20.83
2019-04-01T18:30:55.982Z,16.43
2019-04-01T18:33:25.834Z,17.07
2019-04-01T18:36:02.028Z,18.33
2019-04-01T18:38:33.477Z,19.90
2019-04-01T18:41:05.051Z,19.87
2019-04-01T18:43:35.369Z,18.60
2019-04-01T18:46:05.421Z,21.97
2019-04-01T18:48:37.199Z,21.13
2019-04-01T18:51:07.172Z,19.07
2019-04-01T18:53:37.032Z,20.67
2019-04-01T18:56:07.080Z,19.20
2019-04-01T18:58:37.083Z,19.67
2019-04-01T19:01:07.098Z,17.37
2019-04-01T19:03:37.113Z,18.00
2019-04-01T19:06:07.496Z,16.10
2019-04-01T19:08:37.950Z,15.83
2019-04-01T19:11:08.208Z,19.33
2019-04-01T19:13:38.173Z,21.10
2019-04-01T19:16:09.073Z,16.83
2019-04-01T19:18:40.014Z,17.77
2019-04-01T19:21:11.074Z,19.63
2019-04-01T19:23:41.639Z,16.33
2019-04-01T19:26:11.866Z,17.33
2019-04-01T19:28:42.177Z,18.97
2019-04-01T19:31:12.241Z,17.73
2019-04-01T19:33:42.898Z,16.33
2019-04-01T19:36:13.559Z,18.97
2019-04-01T19:38:45.036Z,16.57
2019-04-01T19:41:15.148Z,17.83
2019-04-01T19:43:45.671Z,16.77
2019-04-01T19:46:15.976Z,17.50
2019-04-01T19:48:46.310Z,17.70
2019-04-01T19:51:16.546Z,17.27
2019-04-01T19:53:46.604Z,15.97
2019-04-01T19:56:17.728Z,15.93
2019-04-01T19:58:47.941Z,17.03
2019-04-01T20:01:18.222Z,18.90
2019-04-01T20:03:50.638Z,19.07
2019-04-01T20:06:20.961Z,14.13
2019-04-01T20:08:50.950Z,18.00
2019-04-01T20:11:21.116Z,15.77
2019-04-01T20:13:54.865Z,15.10
2019-04-01T20:16:23.997Z,17.87
2019-04-01T20:18:53.901Z,16.13
2019-04-01T20:21:23.859Z,16.00
2019-04-01T20:23:54.957Z,16.67
2019-04-01T20:26:25.058Z,16.40
2019-04-01T20:28:55.085Z,21.60
2019-04-01T20:31:26.209Z,15.23
2019-04-01T20:33:56.334Z,16.27
2019-04-01T20:36:28.916Z,20.57
2019-04-01T20:38:57.901Z,17.20
2019-04-01T20:41:27.771Z,16.70
2019-04-01T20:43:57.626Z,18.37
2019-04-01T20:46:27.798Z,16.93
2019-04-01T20:48:57.732Z,17.80
2019-04-01T20:51:27.769Z,19.60
2019-04-01T20:53:57.794Z,18.13
2019-04-01T20:56:27.834Z,18.60
2019-04-01T20:58:57.686Z,21.73
2019-04-01T21:01:27.689Z,18.87
2019-04-01T21:03:58.812Z,20.07
2019-04-01T21:06:29.141Z,16.83
2019-04-01T21:08:59.198Z,19.63
2019-04-01T21:11:29.046Z,18.43
2019-04-01T21:13:58.955Z,17.13
2019-04-01T21:16:28.979Z,18.37
2019-04-01T21:18:58.911Z,17.17
2019-04-01T21:21:28.916Z,14.83
2019-04-01T21:23:59.854Z,17.70
2019-04-01T21:26:29.971Z,15.37
2019-04-01T21:28:59.944Z,19.73
2019-04-01T21:31:29.994Z,17.90
2019-04-01T21:33:59.972Z,16.83
2019-04-01T21:36:30.005Z,17.87
2019-04-01T21:39:01.127Z,16.90
2019-04-01T21:41:32.811Z,17.60
2019-04-01T21:44:02.796Z,17.33
2019-04-01T21:46:32.762Z,16.90
2019-04-01T21:49:02.718Z,18.53
2019-04-01T21:51:33.819Z,16.83
2019-04-01T21:54:03.757Z,19.87
2019-04-01T21:56:33.688Z,18.60
2019-04-01T21:59:03.677Z,17.90
2019-04-01T22:01:33.683Z,17.47
2019-04-01T22:04:03.541Z,19.43
2019-04-01T22:06:33.547Z,20.17
2019-04-01T22:09:06.881Z,19.23
2019-04-01T22:11:37.050Z,18.43
2019-04-01T22:14:07.061Z,21.17
2019-04-01T22:16:36.930Z,20.63
2019-04-01T22:19:06.832Z,19.30
2019-04-01T22:21:36.659Z,26.67
2019-04-01T22:24:07.771Z,19.90
2019-04-01T22:26:37.782Z,18.10
2019-04-01T22:29:07.640Z,19.80
2019-04-01T22:31:37.560Z,18.37
2019-04-01T22:34:09.029Z,18.97
2019-04-01T22:36:40.039Z,18.27
2019-04-01T22:39:10.362Z,18.37
2019-04-01T22:41:41.677Z,17.53
2019-04-01T22:44:12.877Z,18.93
2019-04-01T22:46:42.730Z,19.47
2019-04-01T22:49:12.632Z,18.77
2019-04-01T22:51:42.421Z,20.77
2019-04-01T22:54:12.260Z,18.77
2019-04-01T22:56:43.263Z,20.97
2019-04-01T22:59:13.643Z,19.10
2019-04-01T23:01:44.177Z,15.97
2019-04-01T23:04:14.829Z,21.87
2019-04-01T23:06:44.772Z,20.90
2019-04-01T23:09:14.716Z,19.50
2019-04-01T23:11:44.721Z,20.07
2019-04-01T23:14:14.682Z,21.50
2019-04-01T23:16:44.674Z,21.00
2019-04-01T23:19:14.677Z,18.17
2019-04-01T23:21:44.589Z,20.20
2019-04-01T23:24:14.569Z,20.07
2019-04-01T23:26:44.628Z,20.67
2019-04-01T23:29:14.548Z,19.53
2019-04-01T23:31:44.460Z,21.47
2019-04-01T23:34:14.500Z,20.03
2019-04-01T23:36:44.392Z,19.63
2019-04-01T23:39:14.228Z,20.93
2019-04-01T23:41:44.224Z,27.93
2019-04-01T23:44:14.131Z,20.17
2019-04-01T23:46:44.131Z,22.40
2019-04-01T23:49:13.962Z,22.40
2019-04-01T23:51:43.988Z,20.47
2019-04-01T23:54:13.946Z,21.27
2019-04-01T23:56:43.854Z,22.00
2019-04-01T23:59:13.693Z,20.27
